Tybee Island, GA (31328)

9:25 AM EST on February 06, 2016 (GMT -0500)
Tid-Bit | | Change Station
CLOSE
Current Station
Personal Weather Station
Location: Tybee Island, GA
Elevation: 10 ft
Nearby Weather Stations
Active Advisory: Flood Warning

Elev 10 ft 32.01 °N, 80.85 °W | Updated 12 minutes ago

Overcast
Overcast
47.3 °F
Feels Like 47 °F
N
2.0
Wind Variable Wind from ESE
Gusts 11.0 mph

Today
High -- | Low -- °F
--% Chance of Precip.
Yesterday
High -- | Low -- °F
Precip. -- in
Pressure 30.36 in
Visibility 10.0 miles
Clouds Mostly Cloudy 6500 ft
Windchill 47 °F
Dew Point 35 °F
Humidity 63%
Rainfall 0.00 in
Snow Depth Not available.
7:13 AM 6:01 PM
Waning Crescent, 5% visible
METAR KHXD 061250Z 03010G18KT 10SM BKN065 07/M01 A3036
Pressure 30.36 in
Visibility 10.0 miles
Clouds Mostly Cloudy 6500 ft
Windchill 47 °F
Dew Point 35 °F
Humidity 63%
Rainfall 0.00 in
Snow Depth Not available.
7:13 AM 6:01 PM
Waning Crescent, 5% visible
METAR KHXD 061250Z 03010G18KT 10SM BKN065 07/M01 A3036

10-Day Weather Forecast

Almanac

Astronomy

Feb. 06, 2016 Rise Set
Actual Time
Civil Twilight
Nautical Twilight
Astronomical Twilight
Moon
Length of Visible Light
Length of Day
Tomorrow will be .
, % of the Moon is Illuminated

Today's Extremes

State Highs State Lows

Community

WunderPhotos

Upload Photos

1,890,981 photos uploaded!

WunderBlog® & News

Nearby

Air Quality

  Air Quality AQ Index Pollutant
Not available.

Snow Depth

Station Depth Elevation

Earthquake Activity

City Distance Mag. Time & Date
Minimum magnitude displayed is 2.5.

Coastal Water Temperatures

Place Temperature

Stations

Nearby Weather Stations

Station Location Temp. Windchill Dew Point Humidity Wind Precip. Elev Updated Type
                   

Watches & Warnings

Flood Warning
Issued: 9:42 PM EST Feb. 5, 2016 – National Weather Service

The Flood Warning continues for
the Ogeechee river near Eden.
* At 9 PM Friday the stage was 11.1 feet.
* Flood stage is 11.0 feet.
* Minor flooding is occurring.
* Forecast, the river will continue rising to near 12.4 feet by
Monday evening. Additional rises may be possible thereafter.
* At 11.0 feet, portions of Yarbrough Landing Road become impassable.


Lat... Lon 3246 8160 3252 8152 3227 8140 3208 8133
          3206 8143 3223 8150